createdAt,value
2023-10-04T00:01:41.442Z,2.65
2023-10-04T00:05:44.592Z,2.17
2023-10-04T00:09:47.430Z,4.00
2023-10-04T00:13:52.646Z,2.42
2023-10-04T00:17:56.143Z,2.40
2023-10-04T00:21:59.554Z,6.88
2023-10-04T00:26:02.360Z,1.95
2023-10-04T00:30:08.438Z,2.17
2023-10-04T00:34:11.182Z,2.60
2023-10-04T00:38:16.418Z,2.72
2023-10-04T00:42:21.640Z,2.30
2023-10-04T00:46:26.346Z,3.03
2023-10-04T00:50:33.014Z,2.78
2023-10-04T00:54:36.465Z,2.80
2023-10-04T00:58:39.828Z,2.22
2023-10-04T01:02:44.098Z,2.28
2023-10-04T01:06:47.039Z,2.40
2023-10-04T01:10:51.906Z,2.42
2023-10-04T01:14:55.101Z,4.35
2023-10-04T01:19:00.206Z,2.78
2023-10-04T01:23:07.171Z,4.05
2023-10-04T01:27:10.151Z,6.18
2023-10-04T01:31:13.060Z,2.72
2023-10-04T01:35:16.111Z,2.80
2023-10-04T01:39:21.798Z,4.75
2023-10-04T01:43:26.430Z,2.85
2023-10-04T01:47:31.741Z,2.63
2023-10-04T01:51:34.601Z,2.72
2023-10-04T01:55:38.859Z,2.40
2023-10-04T01:59:41.639Z,4.20
2023-10-04T02:03:44.456Z,2.38
2023-10-04T02:07:47.341Z,2.65
2023-10-04T02:11:52.135Z,3.13
2023-10-04T02:15:56.116Z,3.58
2023-10-04T02:24:03.524Z,2.50
2023-10-04T02:28:12.277Z,2.28
2023-10-04T02:32:15.044Z,2.83
2023-10-04T02:36:17.922Z,2.30
2023-10-04T02:40:22.696Z,2.60
2023-10-04T02:44:27.012Z,2.17
2023-10-04T02:48:31.962Z,2.22
2023-10-04T02:52:36.936Z,2.60
2023-10-04T02:56:47.053Z,2.25
2023-10-04T03:00:52.052Z,2.45
2023-10-04T03:04:55.097Z,2.63
2023-10-04T03:08:58.414Z,1.95
2023-10-04T03:13:02.352Z,3.35
2023-10-04T03:17:10.310Z,4.10
2023-10-04T03:21:21.472Z,2.70
2023-10-04T03:25:27.541Z,3.17
2023-10-04T03:29:30.996Z,3.47
2023-10-04T03:33:36.650Z,3.03
2023-10-04T03:37:45.338Z,3.35
2023-10-04T03:41:48.763Z,4.50
2023-10-04T03:45:52.424Z,3.25
2023-10-04T03:49:56.587Z,3.50
2023-10-04T03:53:59.418Z,2.60
2023-10-04T03:58:02.218Z,3.78
2023-10-04T04:02:06.950Z,3.47
2023-10-04T04:06:13.076Z,3.28
2023-10-04T04:10:18.233Z,2.60
2023-10-04T04:14:21.238Z,3.55
2023-10-04T04:18:24.953Z,3.30
2023-10-04T04:22:29.727Z,5.38
2023-10-04T04:26:34.824Z,5.13
2023-10-04T04:30:39.174Z,5.03
2023-10-04T04:34:43.200Z,5.47
2023-10-04T04:38:48.788Z,6.32
2023-10-04T04:42:51.769Z,5.22
2023-10-04T04:46:54.906Z,10.80
2023-10-04T04:50:59.261Z,17.80
2023-10-04T04:55:03.900Z,14.32
2023-10-04T04:59:09.254Z,13.80
2023-10-04T05:03:13.048Z,13.95
2023-10-04T05:07:16.135Z,12.88
2023-10-04T05:11:20.562Z,10.90
2023-10-04T05:15:33.484Z,9.80
2023-10-04T05:19:36.482Z,10.50
2023-10-04T05:23:40.122Z,11.30
2023-10-04T05:27:44.828Z,6.90
2023-10-04T05:31:48.875Z,9.80
2023-10-04T05:35:54.627Z,8.40
2023-10-04T05:39:57.411Z,9.05
2023-10-04T05:44:01.769Z,12.25
2023-10-04T05:48:06.249Z,12.75
2023-10-04T05:52:09.401Z,15.30
2023-10-04T05:56:12.100Z,11.88
2023-10-04T06:00:25.368Z,15.43
2023-10-04T06:04:28.518Z,29.10
2023-10-04T06:08:31.307Z,23.33
2023-10-04T06:12:34.955Z,27.05
2023-10-04T06:16:39.692Z,27.65
2023-10-04T06:20:43.332Z,26.60
2023-10-04T06:24:46.973Z,24.27
2023-10-04T06:28:51.476Z,30.02
2023-10-04T06:32:56.495Z,31.33
2023-10-04T06:36:59.612Z,26.63
2023-10-04T06:41:04.416Z,22.50
2023-10-04T06:45:10.655Z,19.02
2023-10-04T06:49:15.527Z,20.98
2023-10-04T06:53:18.373Z,22.02
2023-10-04T06:57:21.904Z,21.83
2023-10-04T07:01:25.304Z,20.25
2023-10-04T07:05:33.862Z,16.83
2023-10-04T07:09:36.677Z,10.40
2023-10-04T07:13:40.419Z,14.48
2023-10-04T07:17:44.218Z,20.00
2023-10-04T07:21:48.588Z,11.40
2023-10-04T07:25:51.666Z,8.68
2023-10-04T07:29:55.313Z,9.18
2023-10-04T07:33:58.436Z,7.10
2023-10-04T07:38:05.362Z,11.23
2023-10-04T07:42:08.793Z,8.60
2023-10-04T07:46:11.790Z,5.85
2023-10-04T07:50:16.515Z,10.55
2023-10-04T07:54:20.730Z,12.98
2023-10-04T07:58:23.526Z,8.25
2023-10-04T08:02:26.306Z,8.18
2023-10-04T08:06:29.134Z,6.63
2023-10-04T08:10:35.188Z,8.02
2023-10-04T08:14:38.237Z,9.48
2023-10-04T08:18:41.083Z,6.15
2023-10-04T08:22:44.557Z,5.78
2023-10-04T08:26:50.076Z,5.90
2023-10-04T08:30:53.356Z,6.15
2023-10-04T08:34:56.646Z,8.18
2023-10-04T08:39:00.898Z,6.28
2023-10-04T08:43:05.500Z,7.10
2023-10-04T08:47:09.737Z,6.15
2023-10-04T08:51:18.284Z,6.20
2023-10-04T08:55:23.344Z,6.95
2023-10-04T08:59:29.138Z,6.32
2023-10-04T09:03:32.393Z,5.82
2023-10-04T09:07:35.821Z,7.60
2023-10-04T09:11:38.714Z,6.43
2023-10-04T09:15:43.636Z,5.95
2023-10-04T09:19:48.320Z,6.40
2023-10-04T09:24:06.782Z,5.35
2023-10-04T09:28:10.757Z,5.32
2023-10-04T09:32:15.038Z,4.70
2023-10-04T09:36:33.447Z,3.90
2023-10-04T09:40:36.295Z,4.70
2023-10-04T09:44:39.111Z,5.30
2023-10-04T09:48:46.346Z,4.72
2023-10-04T09:52:49.582Z,4.35
2023-10-04T09:56:54.697Z,4.10
2023-10-04T10:00:57.696Z,4.03
2023-10-04T10:05:02.478Z,3.70
2023-10-04T10:09:12.628Z,2.83
2023-10-04T10:13:16.898Z,3.08
2023-10-04T10:17:19.821Z,3.13
2023-10-04T10:21:23.959Z,3.10
2023-10-04T10:25:27.037Z,2.28
2023-10-04T10:29:30.662Z,2.40
2023-10-04T10:33:33.658Z,2.30
2023-10-04T10:37:39.765Z,2.40
2023-10-04T10:42:05.018Z,1.80
2023-10-04T10:46:29.959Z,1.70
2023-10-04T10:50:36.965Z,1.63
2023-10-04T10:54:41.375Z,2.00
2023-10-04T10:58:51.014Z,1.52
2023-10-04T11:02:55.608Z,1.48
2023-10-04T11:06:58.755Z,1.48
2023-10-04T11:11:02.866Z,1.52
2023-10-04T11:15:07.770Z,1.55
2023-10-04T11:19:13.726Z,1.27
2023-10-04T11:23:16.882Z,1.92
2023-10-04T11:27:23.998Z,1.67
2023-10-04T11:31:33.029Z,1.77
2023-10-04T11:35:42.183Z,1.90
2023-10-04T11:43:52.838Z,2.50
2023-10-04T11:48:00.038Z,1.92
2023-10-04T11:52:05.225Z,1.83
2023-10-04T11:56:10.264Z,1.70
2023-10-04T12:00:30.391Z,1.90
2023-10-04T12:04:34.322Z,1.95
2023-10-04T12:08:41.302Z,1.73
2023-10-04T12:12:44.638Z,2.15
2023-10-04T12:16:49.144Z,2.03
2023-10-04T12:20:51.920Z,2.85
2023-10-04T12:24:55.488Z,2.40
2023-10-04T12:28:59.218Z,2.17
2023-10-04T12:33:03.982Z,2.45
2023-10-04T12:37:08.322Z,2.83
2023-10-04T12:41:11.497Z,2.55
2023-10-04T12:45:16.730Z,2.10
2023-10-04T12:49:21.142Z,2.78
2023-10-04T12:53:23.850Z,2.28
2023-10-04T12:57:28.965Z,2.80
2023-10-04T13:01:33.237Z,3.80
2023-10-04T13:05:39.054Z,2.70
2023-10-04T13:09:57.865Z,2.80
2023-10-04T13:14:02.224Z,2.85
2023-10-04T13:22:13.521Z,2.95
2023-10-04T13:26:16.722Z,2.78
2023-10-04T13:30:19.680Z,2.55
2023-10-04T13:34:22.549Z,2.38
2023-10-04T13:38:26.747Z,2.58
2023-10-04T13:42:29.836Z,2.97
2023-10-04T13:46:33.021Z,2.58
2023-10-04T13:54:41.901Z,1.90
2023-10-04T13:58:44.633Z,2.33
2023-10-04T14:02:47.453Z,2.17
2023-10-04T14:06:50.244Z,2.58
2023-10-04T14:10:54.379Z,2.33
2023-10-04T14:14:57.067Z,2.40
2023-10-04T14:19:00.239Z,1.83
2023-10-04T14:23:08.754Z,2.25
2023-10-04T14:27:12.798Z,2.30
2023-10-04T14:31:15.709Z,2.45
2023-10-04T14:35:18.788Z,2.50
2023-10-04T14:39:24.743Z,2.33
2023-10-04T14:43:29.892Z,2.53
2023-10-04T14:47:33.180Z,2.33
2023-10-04T14:51:36.873Z,2.20
2023-10-04T14:55:39.583Z,2.40
2023-10-04T14:59:44.113Z,2.30
2023-10-04T15:03:48.852Z,2.30
2023-10-04T15:07:52.729Z,2.30
2023-10-04T15:11:55.484Z,2.40
2023-10-04T15:16:10.146Z,2.25
2023-10-04T15:20:17.537Z,2.63
2023-10-04T15:24:23.428Z,3.00
2023-10-04T15:28:27.764Z,2.38
2023-10-04T15:32:33.543Z,3.10
2023-10-04T15:36:36.342Z,2.45
2023-10-04T15:40:40.861Z,2.53
2023-10-04T15:44:43.758Z,2.60
2023-10-04T15:48:48.060Z,2.22
2023-10-04T15:52:51.027Z,2.60
2023-10-04T15:56:54.002Z,2.53
2023-10-04T16:00:57.748Z,2.70
2023-10-04T16:05:02.192Z,2.47
2023-10-04T16:09:07.937Z,2.83
2023-10-04T16:13:10.907Z,2.50
2023-10-04T16:17:13.915Z,2.53
2023-10-04T16:21:22.285Z,2.03
2023-10-04T16:25:25.144Z,2.70
2023-10-04T16:29:27.885Z,2.53
2023-10-04T16:33:30.755Z,2.53
2023-10-04T16:37:34.908Z,2.35
2023-10-04T16:41:39.659Z,2.72
2023-10-04T16:45:43.773Z,2.42
2023-10-04T16:49:46.716Z,2.75
2023-10-04T16:53:50.864Z,2.72
2023-10-04T16:57:53.691Z,2.13
2023-10-04T17:01:56.750Z,2.03
2023-10-04T17:05:59.582Z,2.30
2023-10-04T17:10:04.138Z,2.50
2023-10-04T17:14:07.104Z,1.98
2023-10-04T17:18:09.894Z,2.58
2023-10-04T17:22:13.494Z,2.40
2023-10-04T17:26:17.945Z,2.50
2023-10-04T17:30:21.542Z,2.38
2023-10-04T17:34:24.431Z,2.70
2023-10-04T17:38:27.528Z,2.70
2023-10-04T17:42:32.200Z,2.47
2023-10-04T17:46:35.788Z,2.60
2023-10-04T17:54:42.809Z,2.30
2023-10-04T17:58:47.003Z,2.97
2023-10-04T18:02:50.761Z,2.50
2023-10-04T18:06:53.797Z,2.22
2023-10-04T18:10:56.699Z,2.47
2023-10-04T18:15:00.918Z,2.50
2023-10-04T18:19:04.418Z,3.63
2023-10-04T18:27:09.969Z,2.75
2023-10-04T18:31:15.357Z,2.53
2023-10-04T18:35:18.965Z,3.08
2023-10-04T18:39:22.155Z,2.70
2023-10-04T18:43:24.999Z,2.47
2023-10-04T18:47:29.352Z,2.70
2023-10-04T18:51:32.982Z,2.10
2023-10-04T18:55:42.035Z,2.72
2023-10-04T18:59:45.020Z,1.98
2023-10-04T19:03:49.793Z,2.70
2023-10-04T19:07:52.726Z,2.40
2023-10-04T19:11:56.611Z,2.67
2023-10-04T19:15:59.462Z,4.00
2023-10-04T19:20:06.050Z,2.65
2023-10-04T19:24:09.647Z,2.80
2023-10-04T19:28:16.425Z,2.88
2023-10-04T19:32:19.168Z,3.00
2023-10-04T19:36:23.749Z,3.20
2023-10-04T19:40:26.636Z,3.47
2023-10-04T19:44:31.728Z,3.28
2023-10-04T19:48:34.940Z,3.55
2023-10-04T19:52:39.083Z,3.10
2023-10-04T19:56:41.770Z,3.70
2023-10-04T20:00:45.467Z,3.60
2023-10-04T20:04:48.511Z,4.13
2023-10-04T20:08:52.897Z,3.90
2023-10-04T20:12:59.045Z,4.00
2023-10-04T20:17:01.889Z,4.63
2023-10-04T20:21:05.925Z,4.35
2023-10-04T20:25:14.543Z,4.70
2023-10-04T20:29:17.418Z,4.82
2023-10-04T20:33:21.096Z,4.60
2023-10-04T20:37:25.402Z,5.13
2023-10-04T20:41:29.839Z,4.97
2023-10-04T20:45:32.725Z,5.55
2023-10-04T20:49:35.721Z,4.97
2023-10-04T20:53:38.698Z,5.25
2023-10-04T20:57:42.915Z,5.90
2023-10-04T21:01:48.579Z,5.32
2023-10-04T21:05:52.920Z,4.90
2023-10-04T21:09:55.653Z,5.50
2023-10-04T21:13:59.903Z,4.85
2023-10-04T21:18:03.257Z,4.75
2023-10-04T21:22:06.276Z,4.53
2023-10-04T21:26:09.290Z,5.13
2023-10-04T21:30:14.067Z,5.57
2023-10-04T21:34:18.395Z,5.18
2023-10-04T21:38:27.320Z,6.88
2023-10-04T21:42:30.228Z,5.85
2023-10-04T21:46:39.376Z,5.10
2023-10-04T21:50:42.291Z,6.63
2023-10-04T21:54:45.862Z,5.07
2023-10-04T21:58:48.556Z,5.60
2023-10-04T22:02:56.790Z,7.75
2023-10-04T22:07:18.480Z,6.30
2023-10-04T22:11:24.305Z,5.38
2023-10-04T22:15:27.136Z,5.35
2023-10-04T22:19:32.472Z,5.60
2023-10-04T22:23:35.348Z,8.20
2023-10-04T22:27:40.064Z,6.68
2023-10-04T22:31:42.842Z,6.50
2023-10-04T22:35:48.057Z,6.45
2023-10-04T22:39:56.281Z,6.72
2023-10-04T22:44:01.238Z,7.40
2023-10-04T22:48:04.748Z,6.32
2023-10-04T22:52:09.049Z,7.05
2023-10-04T22:56:13.872Z,6.72
2023-10-04T23:00:17.433Z,6.30
2023-10-04T23:04:20.395Z,6.20
2023-10-04T23:08:26.089Z,5.80
2023-10-04T23:12:29.991Z,6.15
2023-10-04T23:16:33.865Z,7.28
2023-10-04T23:24:45.408Z,5.93
2023-10-04T23:28:48.286Z,5.82
2023-10-04T23:32:51.807Z,6.63
2023-10-04T23:36:54.735Z,7.03
2023-10-04T23:41:06.772Z,9.25
2023-10-04T23:45:18.406Z,6.72
2023-10-04T23:49:22.449Z,6.57
2023-10-04T23:53:48.395Z,6.85
2023-10-04T23:57:52.724Z,11.02
